Airfield :
LOGIN :

Register | Disclaimer

   EN    FR    IT 

 










Legend :    VFR   Marginal VFR   IFR   Intensive IFR   Very Intensive IFR
Visi :
Ceiling :
>= 8 km
>= 3000ft
5 to 8 km
1000 to 3000 ft
1500m to 5 km
500 to 1000 ft
800 to 1500m
200 to 500 ft
< 800m
< 200 ft
Symbols :   Thunderstorms  Fog  Heavy snow  Heavy precipitations  Wind > 20 kt
SIGMETs :     Misc.  Thunderstorms  Icing  Turbulence  Mountain Waves  Volcanic Ashes






- Airport Elevation : 1046 ft
- IATA code : NUE


EDDN - Nuremberg

CURRENT METAR :
  • 130450Z 14012KT 9999 BKN013 01/M01 Q0985 R28/19//94

EXPIRED METARs :
  • 130420Z 13011KT 9999 BKN012 01/M01 Q0986 R28/19//94
  • 130350Z 13012KT 9999 BKN011 00/M01 Q0986 R28/19//94
  • 130320Z 13013KT 9999 BKN011 01/M01 Q0987 R28/19//94
  • 130250Z 13011KT 9999 BKN012 00/M01 Q0988 R28/19//94
  • 130220Z 13012KT 9999 BKN012 00/M01 Q0989 R28/19//94

TAF TAF EDDN
Valid from the 13 at 00:00 until the 14 at 00:00 UTC


122300Z 1300/1324 13008KT 8000 BKN006
BECMG 1305/1307 19010KT
PROB30
TEMPO 1305/1309 SCT006 BKN020
TEMPO 1309/1314 2000 SN BKN004
TEMPO 1318/1323 4500 -RASN BKN012
PROB40
TEMPO 1319/1322 2500 SN



MET'MAP, your aeronautical weather chart ! - Copyright ORBIFLY December 2007 - Disclaimer

ORBIFLY MET'MAP TEAM :

Programming & Development : Alexandra Zaïnal
Concept & original design : Baudouin d'Aumeries
Assistance for programming : Marc-Olivier Méhu
Technical & hardware support : Manuel Goepfert

Contact : metmap@orbifly.com




SOURCES & CREDITS :

   NOAA